sensor_id;sensor_type;location;lat;lon;timestamp;P1;durP1;ratioP1;P2;durP2;ratioP2
14584;SDS011;7379;51.506;11.876;2023-08-01T00:01:32;5.10;;;3.40;;
14584;SDS011;7379;51.506;11.876;2023-08-01T00:03:58;4.28;;;3.42;;
14584;SDS011;7379;51.506;11.876;2023-08-01T00:06:25;4.03;;;3.30;;
14584;SDS011;7379;51.506;11.876;2023-08-01T00:08:52;3.97;;;3.28;;
14584;SDS011;7379;51.506;11.876;2023-08-01T00:11:19;4.90;;;3.60;;
14584;SDS011;7379;51.506;11.876;2023-08-01T00:13:47;4.57;;;3.15;;
14584;SDS011;7379;51.506;11.876;2023-08-01T00:16:13;3.95;;;3.08;;
14584;SDS011;7379;51.506;11.876;2023-08-01T00:18:40;3.83;;;2.95;;
14584;SDS011;7379;51.506;11.876;2023-08-01T00:21:07;3.92;;;3.00;;
14584;SDS011;7379;51.506;11.876;2023-08-01T00:23:35;4.32;;;2.92;;
14584;SDS011;7379;51.506;11.876;2023-08-01T00:26:02;4.55;;;3.00;;
14584;SDS011;7379;51.506;11.876;2023-08-01T00:28:29;3.88;;;3.17;;
14584;SDS011;7379;51.506;11.876;2023-08-01T00:31:02;4.28;;;3.10;;
14584;SDS011;7379;51.506;11.876;2023-08-01T00:33:29;3.83;;;2.97;;
14584;SDS011;7379;51.506;11.876;2023-08-01T00:35:56;4.38;;;3.03;;
14584;SDS011;7379;51.506;11.876;2023-08-01T00:38:23;3.78;;;3.22;;
14584;SDS011;7379;51.506;11.876;2023-08-01T00:40:50;3.90;;;2.95;;
14584;SDS011;7379;51.506;11.876;2023-08-01T00:43:16;3.90;;;2.90;;
14584;SDS011;7379;51.506;11.876;2023-08-01T00:45:43;3.30;;;2.78;;
14584;SDS011;7379;51.506;11.876;2023-08-01T00:48:13;4.05;;;2.90;;
14584;SDS011;7379;51.506;11.876;2023-08-01T00:50:40;3.55;;;2.92;;
14584;SDS011;7379;51.506;11.876;2023-08-01T00:53:06;3.80;;;2.67;;
14584;SDS011;7379;51.506;11.876;2023-08-01T00:55:33;3.38;;;2.90;;
14584;SDS011;7379;51.506;11.876;2023-08-01T00:58:00;3.20;;;2.90;;
14584;SDS011;7379;51.506;11.876;2023-08-01T01:00:27;3.63;;;2.90;;
14584;SDS011;7379;51.506;11.876;2023-08-01T01:02:54;3.83;;;2.95;;
14584;SDS011;7379;51.506;11.876;2023-08-01T01:05:23;3.90;;;3.10;;
14584;SDS011;7379;51.506;11.876;2023-08-01T01:07:51;4.20;;;3.17;;
14584;SDS011;7379;51.506;11.876;2023-08-01T01:10:19;3.33;;;2.78;;
14584;SDS011;7379;51.506;11.876;2023-08-01T01:12:46;3.97;;;3.00;;
14584;SDS011;7379;51.506;11.876;2023-08-01T01:15:15;3.50;;;3.03;;
14584;SDS011;7379;51.506;11.876;2023-08-01T01:17:42;3.35;;;2.83;;
14584;SDS011;7379;51.506;11.876;2023-08-01T01:20:09;3.83;;;2.83;;
14584;SDS011;7379;51.506;11.876;2023-08-01T01:22:37;3.10;;;2.80;;
14584;SDS011;7379;51.506;11.876;2023-08-01T01:25:06;2.90;;;2.60;;
14584;SDS011;7379;51.506;11.876;2023-08-01T01:27:35;4.38;;;2.80;;
14584;SDS011;7379;51.506;11.876;2023-08-01T01:30:04;3.08;;;2.78;;
14584;SDS011;7379;51.506;11.876;2023-08-01T01:32:32;3.83;;;2.63;;
14584;SDS011;7379;51.506;11.876;2023-08-01T01:35:00;2.95;;;2.60;;
14584;SDS011;7379;51.506;11.876;2023-08-01T01:37:29;3.63;;;2.83;;
14584;SDS011;7379;51.506;11.876;2023-08-01T01:39:57;2.70;;;2.30;;
14584;SDS011;7379;51.506;11.876;2023-08-01T01:42:24;3.45;;;2.80;;
14584;SDS011;7379;51.506;11.876;2023-08-01T01:44:50;3.30;;;2.80;;
14584;SDS011;7379;51.506;11.876;2023-08-01T01:47:17;3.33;;;2.67;;
14584;SDS011;7379;51.506;11.876;2023-08-01T01:49:44;3.10;;;2.53;;
14584;SDS011;7379;51.506;11.876;2023-08-01T01:52:10;3.55;;;2.63;;
14584;SDS011;7379;51.506;11.876;2023-08-01T01:54:37;2.80;;;2.40;;
14584;SDS011;7379;51.506;11.876;2023-08-01T01:57:05;2.92;;;2.63;;
14584;SDS011;7379;51.506;11.876;2023-08-01T01:59:32;3.05;;;2.75;;
14584;SDS011;7379;51.506;11.876;2023-08-01T02:01:59;2.78;;;2.47;;
14584;SDS011;7379;51.506;11.876;2023-08-01T02:04:25;3.53;;;2.40;;
14584;SDS011;7379;51.506;11.876;2023-08-01T02:06:52;2.80;;;2.50;;
14584;SDS011;7379;51.506;11.876;2023-08-01T02:09:19;2.50;;;2.13;;
14584;SDS011;7379;51.506;11.876;2023-08-01T02:11:46;2.83;;;2.60;;
14584;SDS011;7379;51.506;11.876;2023-08-01T02:14:15;4.03;;;2.50;;
14584;SDS011;7379;51.506;11.876;2023-08-01T02:16:41;2.00;;;1.85;;
14584;SDS011;7379;51.506;11.876;2023-08-01T02:19:08;2.35;;;2.15;;
14584;SDS011;7379;51.506;11.876;2023-08-01T02:21:35;3.33;;;2.30;;
14584;SDS011;7379;51.506;11.876;2023-08-01T02:24:02;2.70;;;2.30;;
14584;SDS011;7379;51.506;11.876;2023-08-01T02:26:29;3.20;;;2.58;;
14584;SDS011;7379;51.506;11.876;2023-08-01T02:28:55;2.72;;;2.25;;
14584;SDS011;7379;51.506;11.876;2023-08-01T02:31:23;3.20;;;2.40;;
14584;SDS011;7379;51.506;11.876;2023-08-01T02:33:50;2.65;;;2.40;;
14584;SDS011;7379;51.506;11.876;2023-08-01T02:36:17;2.75;;;2.35;;
14584;SDS011;7379;51.506;11.876;2023-08-01T02:38:44;3.50;;;2.70;;
14584;SDS011;7379;51.506;11.876;2023-08-01T02:41:11;2.63;;;2.40;;
14584;SDS011;7379;51.506;11.876;2023-08-01T02:43:37;3.00;;;2.47;;
14584;SDS011;7379;51.506;11.876;2023-08-01T02:46:04;3.08;;;2.67;;
14584;SDS011;7379;51.506;11.876;2023-08-01T02:48:32;2.63;;;2.40;;
14584;SDS011;7379;51.506;11.876;2023-08-01T02:51:00;2.58;;;2.28;;
14584;SDS011;7379;51.506;11.876;2023-08-01T02:53:27;3.55;;;2.40;;
14584;SDS011;7379;51.506;11.876;2023-08-01T02:55:54;3.20;;;2.35;;
14584;SDS011;7379;51.506;11.876;2023-08-01T02:58:20;2.83;;;2.53;;
14584;SDS011;7379;51.506;11.876;2023-08-01T03:00:47;3.13;;;2.60;;
14584;SDS011;7379;51.506;11.876;2023-08-01T03:03:14;3.13;;;2.72;;
14584;SDS011;7379;51.506;11.876;2023-08-01T03:05:42;2.50;;;2.30;;
14584;SDS011;7379;51.506;11.876;2023-08-01T03:08:09;2.92;;;2.30;;
14584;SDS011;7379;51.506;11.876;2023-08-01T03:10:35;2.80;;;2.50;;
14584;SDS011;7379;51.506;11.876;2023-08-01T03:13:02;3.42;;;2.60;;
14584;SDS011;7379;51.506;11.876;2023-08-01T03:15:29;2.92;;;2.63;;
14584;SDS011;7379;51.506;11.876;2023-08-01T03:17:56;3.15;;;2.63;;
14584;SDS011;7379;51.506;11.876;2023-08-01T03:20:23;3.00;;;2.58;;
14584;SDS011;7379;51.506;11.876;2023-08-01T03:22:51;3.42;;;2.83;;
14584;SDS011;7379;51.506;11.876;2023-08-01T03:25:18;2.90;;;2.65;;
14584;SDS011;7379;51.506;11.876;2023-08-01T03:27:45;3.28;;;2.80;;
14584;SDS011;7379;51.506;11.876;2023-08-01T03:30:11;3.80;;;2.65;;
14584;SDS011;7379;51.506;11.876;2023-08-01T03:32:39;2.90;;;2.50;;
14584;SDS011;7379;51.506;11.876;2023-08-01T03:35:06;3.47;;;2.80;;
14584;SDS011;7379;51.506;11.876;2023-08-01T03:37:33;4.40;;;2.63;;
14584;SDS011;7379;51.506;11.876;2023-08-01T03:40:01;2.80;;;2.53;;
14584;SDS011;7379;51.506;11.876;2023-08-01T03:42:28;3.63;;;2.58;;
14584;SDS011;7379;51.506;11.876;2023-08-01T03:44:54;3.30;;;2.80;;
14584;SDS011;7379;51.506;11.876;2023-08-01T03:47:21;2.90;;;2.60;;
14584;SDS011;7379;51.506;11.876;2023-08-01T03:49:48;2.75;;;2.53;;
14584;SDS011;7379;51.506;11.876;2023-08-01T03:52:15;3.05;;;2.65;;
14584;SDS011;7379;51.506;11.876;2023-08-01T03:54:41;3.20;;;2.60;;
14584;SDS011;7379;51.506;11.876;2023-08-01T03:57:09;4.47;;;2.70;;
14584;SDS011;7379;51.506;11.876;2023-08-01T03:59:36;4.13;;;2.72;;
14584;SDS011;7379;51.506;11.876;2023-08-01T04:02:03;3.00;;;2.50;;
14584;SDS011;7379;51.506;11.876;2023-08-01T04:04:30;3.38;;;2.70;;
14584;SDS011;7379;51.506;11.876;2023-08-01T04:06:57;2.78;;;2.47;;
14584;SDS011;7379;51.506;11.876;2023-08-01T04:09:23;3.28;;;2.67;;
14584;SDS011;7379;51.506;11.876;2023-08-01T04:11:50;3.22;;;2.40;;
14584;SDS011;7379;51.506;11.876;2023-08-01T04:14:18;3.53;;;2.30;;
14584;SDS011;7379;51.506;11.876;2023-08-01T04:16:45;3.25;;;2.22;;
14584;SDS011;7379;51.506;11.876;2023-08-01T04:19:12;3.53;;;2.30;;
14584;SDS011;7379;51.506;11.876;2023-08-01T04:21:39;3.40;;;2.50;;
14584;SDS011;7379;51.506;11.876;2023-08-01T04:24:05;3.10;;;2.53;;
14584;SDS011;7379;51.506;11.876;2023-08-01T04:26:32;2.92;;;2.33;;
14584;SDS011;7379;51.506;11.876;2023-08-01T04:28:59;4.45;;;2.60;;
14584;SDS011;7379;51.506;11.876;2023-08-01T04:31:27;3.70;;;2.40;;
14584;SDS011;7379;51.506;11.876;2023-08-01T04:33:53;2.90;;;2.47;;
14584;SDS011;7379;51.506;11.876;2023-08-01T04:36:20;2.78;;;2.40;;
14584;SDS011;7379;51.506;11.876;2023-08-01T04:38:47;4.72;;;2.50;;
14584;SDS011;7379;51.506;11.876;2023-08-01T04:41:14;3.38;;;2.55;;
14584;SDS011;7379;51.506;11.876;2023-08-01T04:43:40;3.92;;;2.60;;
14584;SDS011;7379;51.506;11.876;2023-08-01T04:46:07;3.15;;;2.47;;
14584;SDS011;7379;51.506;11.876;2023-08-01T04:48:35;3.30;;;2.30;;
14584;SDS011;7379;51.506;11.876;2023-08-01T04:51:02;2.78;;;2.25;;
14584;SDS011;7379;51.506;11.876;2023-08-01T04:53:29;3.55;;;2.45;;
14584;SDS011;7379;51.506;11.876;2023-08-01T04:55:55;3.88;;;2.63;;
14584;SDS011;7379;51.506;11.876;2023-08-01T04:58:22;3.42;;;2.47;;
14584;SDS011;7379;51.506;11.876;2023-08-01T05:00:49;2.60;;;2.30;;
14584;SDS011;7379;51.506;11.876;2023-08-01T05:03:15;3.05;;;2.08;;
14584;SDS011;7379;51.506;11.876;2023-08-01T05:05:44;3.25;;;2.45;;
14584;SDS011;7379;51.506;11.876;2023-08-01T05:08:11;4.82;;;2.35;;
14584;SDS011;7379;51.506;11.876;2023-08-01T05:10:37;2.80;;;2.00;;
14584;SDS011;7379;51.506;11.876;2023-08-01T05:13:05;2.38;;;2.10;;
14584;SDS011;7379;51.506;11.876;2023-08-01T05:15:32;2.92;;;2.30;;
14584;SDS011;7379;51.506;11.876;2023-08-01T05:17:58;2.40;;;2.20;;
14584;SDS011;7379;51.506;11.876;2023-08-01T05:20:25;3.00;;;2.40;;
14584;SDS011;7379;51.506;11.876;2023-08-01T05:22:56;2.50;;;2.10;;
14584;SDS011;7379;51.506;11.876;2023-08-01T05:25:24;2.63;;;2.00;;
14584;SDS011;7379;51.506;11.876;2023-08-01T05:27:50;2.20;;;2.00;;
14584;SDS011;7379;51.506;11.876;2023-08-01T05:30:17;2.20;;;2.00;;
14584;SDS011;7379;51.506;11.876;2023-08-01T05:32:44;2.40;;;2.03;;
14584;SDS011;7379;51.506;11.876;2023-08-01T05:35:12;4.18;;;2.00;;
14584;SDS011;7379;51.506;11.876;2023-08-01T05:37:39;2.53;;;1.92;;
14584;SDS011;7379;51.506;11.876;2023-08-01T05:40:08;2.72;;;1.90;;
14584;SDS011;7379;51.506;11.876;2023-08-01T05:42:35;3.03;;;2.00;;
14584;SDS011;7379;51.506;11.876;2023-08-01T05:45:02;2.25;;;1.70;;
14584;SDS011;7379;51.506;11.876;2023-08-01T05:47:30;2.42;;;1.88;;
14584;SDS011;7379;51.506;11.876;2023-08-01T05:49:56;2.03;;;1.83;;
14584;SDS011;7379;51.506;11.876;2023-08-01T05:52:23;2.67;;;1.80;;
14584;SDS011;7379;51.506;11.876;2023-08-01T05:54:50;3.75;;;1.50;;
14584;SDS011;7379;51.506;11.876;2023-08-01T05:57:18;3.22;;;1.67;;
14584;SDS011;7379;51.506;11.876;2023-08-01T05:59:45;1.80;;;1.50;;
14584;SDS011;7379;51.506;11.876;2023-08-01T06:02:12;2.60;;;1.70;;
14584;SDS011;7379;51.506;11.876;2023-08-01T06:04:38;2.08;;;1.60;;
14584;SDS011;7379;51.506;11.876;2023-08-01T06:07:05;1.90;;;1.60;;
14584;SDS011;7379;51.506;11.876;2023-08-01T06:09:32;1.88;;;1.45;;
14584;SDS011;7379;51.506;11.876;2023-08-01T06:11:58;1.45;;;1.35;;
14584;SDS011;7379;51.506;11.876;2023-08-01T06:14:26;1.50;;;1.40;;
14584;SDS011;7379;51.506;11.876;2023-08-01T06:16:53;2.20;;;1.52;;
14584;SDS011;7379;51.506;11.876;2023-08-01T06:19:20;1.60;;;1.50;;
14584;SDS011;7379;51.506;11.876;2023-08-01T06:21:47;1.13;;;1.02;;
14584;SDS011;7379;51.506;11.876;2023-08-01T06:24:13;2.78;;;1.42;;
14584;SDS011;7379;51.506;11.876;2023-08-01T06:26:40;1.48;;;1.35;;
14584;SDS011;7379;51.506;11.876;2023-08-01T06:29:07;2.33;;;1.50;;
14584;SDS011;7379;51.506;11.876;2023-08-01T06:31:35;1.95;;;1.50;;
14584;SDS011;7379;51.506;11.876;2023-08-01T06:34:02;1.75;;;1.25;;
14584;SDS011;7379;51.506;11.876;2023-08-01T06:36:28;1.63;;;1.33;;
14584;SDS011;7379;51.506;11.876;2023-08-01T06:38:57;2.28;;;1.05;;
14584;SDS011;7379;51.506;11.876;2023-08-01T06:41:23;1.90;;;1.13;;
14584;SDS011;7379;51.506;11.876;2023-08-01T06:43:50;1.35;;;1.23;;
14584;SDS011;7379;51.506;11.876;2023-08-01T06:46:17;1.88;;;1.27;;
14584;SDS011;7379;51.506;11.876;2023-08-01T06:48:45;1.83;;;1.23;;
14584;SDS011;7379;51.506;11.876;2023-08-01T06:51:12;1.45;;;1.35;;
14584;SDS011;7379;51.506;11.876;2023-08-01T06:53:38;1.48;;;1.10;;
14584;SDS011;7379;51.506;11.876;2023-08-01T06:56:05;1.60;;;1.17;;
14584;SDS011;7379;51.506;11.876;2023-08-01T06:58:32;1.70;;;1.40;;
14584;SDS011;7379;51.506;11.876;2023-08-01T07:00:59;1.67;;;1.30;;
14584;SDS011;7379;51.506;11.876;2023-08-01T07:03:25;1.00;;;0.90;;
14584;SDS011;7379;51.506;11.876;2023-08-01T07:05:53;1.80;;;1.08;;
14584;SDS011;7379;51.506;11.876;2023-08-01T07:08:20;2.55;;;1.00;;
14584;SDS011;7379;51.506;11.876;2023-08-01T07:10:47;1.42;;;1.25;;
14584;SDS011;7379;51.506;11.876;2023-08-01T07:13:14;1.40;;;1.00;;
14584;SDS011;7379;51.506;11.876;2023-08-01T07:15:41;1.42;;;1.20;;
14584;SDS011;7379;51.506;11.876;2023-08-01T07:18:08;2.55;;;1.13;;
14584;SDS011;7379;51.506;11.876;2023-08-01T07:20:35;1.13;;;0.93;;
14584;SDS011;7379;51.506;11.876;2023-08-01T07:23:03;1.73;;;0.93;;
14584;SDS011;7379;51.506;11.876;2023-08-01T07:25:30;1.25;;;0.98;;
14584;SDS011;7379;51.506;11.876;2023-08-01T07:27:56;1.70;;;1.00;;
14584;SDS011;7379;51.506;11.876;2023-08-01T07:30:23;1.23;;;1.13;;
14584;SDS011;7379;51.506;11.876;2023-08-01T07:32:50;1.02;;;0.93;;
14584;SDS011;7379;51.506;11.876;2023-08-01T07:35:17;1.27;;;1.00;;
14584;SDS011;7379;51.506;11.876;2023-08-01T07:37:43;1.25;;;0.93;;
14584;SDS011;7379;51.506;11.876;2023-08-01T07:40:12;1.23;;;1.05;;
14584;SDS011;7379;51.506;11.876;2023-08-01T07:42:38;0.80;;;0.80;;
14584;SDS011;7379;51.506;11.876;2023-08-01T07:45:06;1.80;;;1.02;;
14584;SDS011;7379;51.506;11.876;2023-08-01T07:47:33;1.27;;;0.93;;
14584;SDS011;7379;51.506;11.876;2023-08-01T07:50:00;1.65;;;1.00;;
14584;SDS011;7379;51.506;11.876;2023-08-01T07:52:26;2.22;;;0.88;;
14584;SDS011;7379;51.506;11.876;2023-08-01T07:54:53;1.60;;;0.90;;
14584;SDS011;7379;51.506;11.876;2023-08-01T07:57:23;1.40;;;1.10;;
14584;SDS011;7379;51.506;11.876;2023-08-01T07:59:50;1.30;;;1.13;;
14584;SDS011;7379;51.506;11.876;2023-08-01T08:02:17;1.63;;;0.95;;
14584;SDS011;7379;51.506;11.876;2023-08-01T08:04:43;1.42;;;1.02;;
14584;SDS011;7379;51.506;11.876;2023-08-01T08:07:10;1.83;;;1.10;;
14584;SDS011;7379;51.506;11.876;2023-08-01T08:09:37;1.60;;;1.02;;
14584;SDS011;7379;51.506;11.876;2023-08-01T08:12:04;1.20;;;1.02;;
14584;SDS011;7379;51.506;11.876;2023-08-01T08:14:33;1.27;;;0.75;;
14584;SDS011;7379;51.506;11.876;2023-08-01T08:16:59;1.67;;;1.05;;
14584;SDS011;7379;51.506;11.876;2023-08-01T08:19:26;1.08;;;0.82;;
14584;SDS011;7379;51.506;11.876;2023-08-01T08:21:53;1.60;;;1.10;;
14584;SDS011;7379;51.506;11.876;2023-08-01T08:24:20;1.73;;;1.00;;
14584;SDS011;7379;51.506;11.876;2023-08-01T08:26:46;0.70;;;0.70;;
14584;SDS011;7379;51.506;11.876;2023-08-01T08:29:13;1.88;;;1.05;;
14584;SDS011;7379;51.506;11.876;2023-08-01T08:31:41;1.08;;;0.95;;
14584;SDS011;7379;51.506;11.876;2023-08-01T08:34:08;1.05;;;0.98;;
14584;SDS011;7379;51.506;11.876;2023-08-01T08:36:35;1.20;;;0.90;;
14584;SDS011;7379;51.506;11.876;2023-08-01T08:39:01;0.82;;;0.82;;
14584;SDS011;7379;51.506;11.876;2023-08-01T08:41:29;1.10;;;0.77;;
14584;SDS011;7379;51.506;11.876;2023-08-01T08:43:59;0.50;;;0.50;;
14584;SDS011;7379;51.506;11.876;2023-08-01T08:46:29;1.02;;;0.80;;
14584;SDS011;7379;51.506;11.876;2023-08-01T08:48:58;0.82;;;0.80;;
14584;SDS011;7379;51.506;11.876;2023-08-01T08:51:26;1.30;;;1.00;;
14584;SDS011;7379;51.506;11.876;2023-08-01T08:53:56;0.93;;;0.65;;
14584;SDS011;7379;51.506;11.876;2023-08-01T08:56:23;1.48;;;0.90;;
14584;SDS011;7379;51.506;11.876;2023-08-01T08:58:50;0.93;;;0.75;;
14584;SDS011;7379;51.506;11.876;2023-08-01T09:01:17;2.17;;;1.20;;
14584;SDS011;7379;51.506;11.876;2023-08-01T09:03:44;1.10;;;0.90;;
14584;SDS011;7379;51.506;11.876;2023-08-01T09:06:14;2.67;;;1.00;;
14584;SDS011;7379;51.506;11.876;2023-08-01T09:08:44;1.15;;;0.90;;
14584;SDS011;7379;51.506;11.876;2023-08-01T09:11:16;1.23;;;1.10;;
14584;SDS011;7379;51.506;11.876;2023-08-01T09:13:42;1.42;;;1.05;;
14584;SDS011;7379;51.506;11.876;2023-08-01T09:16:09;1.05;;;0.95;;
14584;SDS011;7379;51.506;11.876;2023-08-01T09:18:46;1.15;;;1.00;;
14584;SDS011;7379;51.506;11.876;2023-08-01T09:21:14;1.00;;;0.90;;
14584;SDS011;7379;51.506;11.876;2023-08-01T09:23:44;1.63;;;0.88;;
14584;SDS011;7379;51.506;11.876;2023-08-01T09:26:13;1.50;;;1.10;;
14584;SDS011;7379;51.506;11.876;2023-08-01T09:28:40;1.15;;;0.98;;
14584;SDS011;7379;51.506;11.876;2023-08-01T09:31:07;1.27;;;0.73;;
14584;SDS011;7379;51.506;11.876;2023-08-01T09:33:37;1.48;;;1.05;;
14584;SDS011;7379;51.506;11.876;2023-08-01T09:36:06;1.45;;;0.85;;
14584;SDS011;7379;51.506;11.876;2023-08-01T09:38:35;0.90;;;0.80;;
14584;SDS011;7379;51.506;11.876;2023-08-01T09:41:03;1.50;;;1.00;;
14584;SDS011;7379;51.506;11.876;2023-08-01T09:43:33;1.00;;;0.90;;
14584;SDS011;7379;51.506;11.876;2023-08-01T09:46:01;1.33;;;0.68;;
14584;SDS011;7379;51.506;11.876;2023-08-01T09:48:28;1.77;;;0.77;;
14584;SDS011;7379;51.506;11.876;2023-08-01T09:51:05;1.73;;;0.70;;
14584;SDS011;7379;51.506;11.876;2023-08-01T09:53:35;0.75;;;0.70;;
14584;SDS011;7379;51.506;11.876;2023-08-01T09:56:12;1.48;;;1.10;;
14584;SDS011;7379;51.506;11.876;2023-08-01T09:58:42;2.20;;;1.15;;
14584;SDS011;7379;51.506;11.876;2023-08-01T10:01:11;1.17;;;0.95;;
14584;SDS011;7379;51.506;11.876;2023-08-01T10:03:40;0.95;;;0.88;;
14584;SDS011;7379;51.506;11.876;2023-08-01T10:06:10;0.95;;;0.85;;
14584;SDS011;7379;51.506;11.876;2023-08-01T10:08:39;0.77;;;0.77;;
14584;SDS011;7379;51.506;11.876;2023-08-01T10:11:07;1.42;;;1.27;;
14584;SDS011;7379;51.506;11.876;2023-08-01T10:13:34;1.15;;;1.05;;
14584;SDS011;7379;51.506;11.876;2023-08-01T10:16:02;0.98;;;0.98;;
14584;SDS011;7379;51.506;11.876;2023-08-01T10:18:29;2.05;;;0.98;;
14584;SDS011;7379;51.506;11.876;2023-08-01T10:20:56;0.98;;;0.88;;
14584;SDS011;7379;51.506;11.876;2023-08-01T10:23:23;1.08;;;1.00;;
14584;SDS011;7379;51.506;11.876;2023-08-01T10:25:52;1.30;;;1.20;;
14584;SDS011;7379;51.506;11.876;2023-08-01T10:28:30;1.30;;;1.20;;
14584;SDS011;7379;51.506;11.876;2023-08-01T10:31:05;1.52;;;1.27;;
14584;SDS011;7379;51.506;11.876;2023-08-01T10:33:33;1.25;;;1.15;;
14584;SDS011;7379;51.506;11.876;2023-08-01T10:36:00;0.90;;;0.85;;
14584;SDS011;7379;51.506;11.876;2023-08-01T10:38:44;1.25;;;1.15;;
14584;SDS011;7379;51.506;11.876;2023-08-01T10:41:19;1.98;;;1.25;;
14584;SDS011;7379;51.506;11.876;2023-08-01T10:43:46;1.50;;;1.40;;
14584;SDS011;7379;51.506;11.876;2023-08-01T10:46:13;1.73;;;1.50;;
14584;SDS011;7379;51.506;11.876;2023-08-01T10:48:47;1.95;;;1.52;;
14584;SDS011;7379;51.506;11.876;2023-08-01T10:51:15;1.80;;;1.58;;
14584;SDS011;7379;51.506;11.876;2023-08-01T10:53:41;1.60;;;1.50;;
14584;SDS011;7379;51.506;11.876;2023-08-01T10:56:14;2.80;;;1.70;;
14584;SDS011;7379;51.506;11.876;2023-08-01T10:58:43;2.00;;;1.70;;
14584;SDS011;7379;51.506;11.876;2023-08-01T11:01:10;2.10;;;1.90;;
14584;SDS011;7379;51.506;11.876;2023-08-01T11:03:37;2.35;;;2.05;;
14584;SDS011;7379;51.506;11.876;2023-08-01T11:06:06;3.33;;;2.00;;
14584;SDS011;7379;51.506;11.876;2023-08-01T11:08:34;2.28;;;2.08;;
14584;SDS011;7379;51.506;11.876;2023-08-01T11:11:01;1.80;;;1.70;;
14584;SDS011;7379;51.506;11.876;2023-08-01T11:13:29;2.53;;;2.00;;
14584;SDS011;7379;51.506;11.876;2023-08-01T11:15:57;2.40;;;2.05;;
14584;SDS011;7379;51.506;11.876;2023-08-01T11:18:24;3.45;;;1.98;;
14584;SDS011;7379;51.506;11.876;2023-08-01T11:20:50;2.50;;;2.28;;
14584;SDS011;7379;51.506;11.876;2023-08-01T11:23:17;3.05;;;2.50;;
14584;SDS011;7379;51.506;11.876;2023-08-01T11:25:44;3.85;;;2.75;;
14584;SDS011;7379;51.506;11.876;2023-08-01T11:28:15;3.38;;;2.67;;
14584;SDS011;7379;51.506;11.876;2023-08-01T11:30:42;3.03;;;2.65;;
14584;SDS011;7379;51.506;11.876;2023-08-01T11:33:15;3.38;;;2.60;;
14584;SDS011;7379;51.506;11.876;2023-08-01T11:35:42;3.15;;;2.50;;
14584;SDS011;7379;51.506;11.876;2023-08-01T11:38:09;2.75;;;2.55;;
14584;SDS011;7379;51.506;11.876;2023-08-01T11:40:36;4.15;;;2.83;;
14584;SDS011;7379;51.506;11.876;2023-08-01T11:43:04;3.67;;;2.55;;
14584;SDS011;7379;51.506;11.876;2023-08-01T11:45:30;4.68;;;2.85;;
14584;SDS011;7379;51.506;11.876;2023-08-01T11:47:57;4.60;;;3.20;;
14584;SDS011;7379;51.506;11.876;2023-08-01T11:50:25;4.40;;;3.15;;
14584;SDS011;7379;51.506;11.876;2023-08-01T11:52:52;4.90;;;3.10;;
14584;SDS011;7379;51.506;11.876;2023-08-01T11:55:20;4.13;;;2.72;;
14584;SDS011;7379;51.506;11.876;2023-08-01T11:57:51;3.40;;;2.88;;
14584;SDS011;7379;51.506;11.876;2023-08-01T12:00:20;4.03;;;2.83;;
14584;SDS011;7379;51.506;11.876;2023-08-01T12:02:48;3.58;;;2.78;;
14584;SDS011;7379;51.506;11.876;2023-08-01T12:05:20;3.70;;;3.05;;
14584;SDS011;7379;51.506;11.876;2023-08-01T12:07:49;5.25;;;3.00;;
14584;SDS011;7379;51.506;11.876;2023-08-01T12:10:17;3.38;;;3.08;;
14584;SDS011;7379;51.506;11.876;2023-08-01T12:12:44;4.88;;;2.97;;
14584;SDS011;7379;51.506;11.876;2023-08-01T12:15:12;5.82;;;3.17;;
14584;SDS011;7379;51.506;11.876;2023-08-01T12:17:39;5.20;;;3.42;;
14584;SDS011;7379;51.506;11.876;2023-08-01T12:20:06;4.88;;;2.92;;
14584;SDS011;7379;51.506;11.876;2023-08-01T12:22:34;6.78;;;3.72;;
14584;SDS011;7379;51.506;11.876;2023-08-01T12:25:02;6.20;;;3.40;;
14584;SDS011;7379;51.506;11.876;2023-08-01T12:27:29;5.03;;;3.45;;
14584;SDS011;7379;51.506;11.876;2023-08-01T12:29:55;5.55;;;3.85;;
14584;SDS011;7379;51.506;11.876;2023-08-01T12:32:22;5.00;;;3.67;;
14584;SDS011;7379;51.506;11.876;2023-08-01T12:34:49;4.60;;;3.50;;
14584;SDS011;7379;51.506;11.876;2023-08-01T12:37:15;4.75;;;3.70;;
14584;SDS011;7379;51.506;11.876;2023-08-01T12:39:42;5.93;;;3.67;;
14584;SDS011;7379;51.506;11.876;2023-08-01T12:42:10;4.82;;;3.70;;
14584;SDS011;7379;51.506;11.876;2023-08-01T12:44:37;4.65;;;3.95;;
14584;SDS011;7379;51.506;11.876;2023-08-01T12:47:04;4.88;;;3.90;;
14584;SDS011;7379;51.506;11.876;2023-08-01T12:49:32;5.10;;;3.80;;
14584;SDS011;7379;51.506;11.876;2023-08-01T12:51:59;5.35;;;4.03;;
14584;SDS011;7379;51.506;11.876;2023-08-01T12:54:26;4.50;;;4.10;;
14584;SDS011;7379;51.506;11.876;2023-08-01T12:56:52;5.45;;;3.78;;
14584;SDS011;7379;51.506;11.876;2023-08-01T12:59:20;6.15;;;4.25;;
14584;SDS011;7379;51.506;11.876;2023-08-01T13:01:47;5.18;;;4.15;;
14584;SDS011;7379;51.506;11.876;2023-08-01T13:04:14;5.47;;;4.22;;
14584;SDS011;7379;51.506;11.876;2023-08-01T13:06:41;4.22;;;3.83;;
14584;SDS011;7379;51.506;11.876;2023-08-01T13:09:07;5.95;;;4.43;;
14584;SDS011;7379;51.506;11.876;2023-08-01T13:11:36;5.65;;;4.40;;
14584;SDS011;7379;51.506;11.876;2023-08-01T13:14:04;5.90;;;4.40;;
14584;SDS011;7379;51.506;11.876;2023-08-01T13:16:32;5.22;;;4.10;;
14584;SDS011;7379;51.506;11.876;2023-08-01T13:18:58;5.45;;;3.97;;
14584;SDS011;7379;51.506;11.876;2023-08-01T13:21:25;5.07;;;4.45;;
14584;SDS011;7379;51.506;11.876;2023-08-01T13:23:52;4.65;;;4.13;;
14584;SDS011;7379;51.506;11.876;2023-08-01T13:26:19;5.30;;;4.80;;
14584;SDS011;7379;51.506;11.876;2023-08-01T13:28:46;6.50;;;4.72;;
14584;SDS011;7379;51.506;11.876;2023-08-01T13:31:12;5.47;;;4.97;;
14584;SDS011;7379;51.506;11.876;2023-08-01T13:33:40;6.35;;;4.90;;
14584;SDS011;7379;51.506;11.876;2023-08-01T13:36:07;5.45;;;4.72;;
14584;SDS011;7379;51.506;11.876;2023-08-01T13:38:34;5.30;;;4.80;;
14584;SDS011;7379;51.506;11.876;2023-08-01T13:41:01;5.55;;;4.90;;
14584;SDS011;7379;51.506;11.876;2023-08-01T13:43:27;5.68;;;5.18;;
14584;SDS011;7379;51.506;11.876;2023-08-01T13:45:54;5.95;;;5.18;;
14584;SDS011;7379;51.506;11.876;2023-08-01T13:48:21;5.45;;;4.93;;
14584;SDS011;7379;51.506;11.876;2023-08-01T13:50:49;6.68;;;4.53;;
14584;SDS011;7379;51.506;11.876;2023-08-01T13:53:15;5.07;;;4.45;;
14584;SDS011;7379;51.506;11.876;2023-08-01T13:55:42;5.80;;;4.60;;
14584;SDS011;7379;51.506;11.876;2023-08-01T13:58:09;8.45;;;4.72;;
14584;SDS011;7379;51.506;11.876;2023-08-01T14:00:35;5.93;;;4.55;;
14584;SDS011;7379;51.506;11.876;2023-08-01T14:03:02;6.30;;;4.18;;
14584;SDS011;7379;51.506;11.876;2023-08-01T14:05:29;6.40;;;4.90;;
14584;SDS011;7379;51.506;11.876;2023-08-01T14:07:57;6.15;;;4.80;;
14584;SDS011;7379;51.506;11.876;2023-08-01T14:10:25;5.03;;;4.55;;
14584;SDS011;7379;51.506;11.876;2023-08-01T14:12:51;6.25;;;4.20;;
14584;SDS011;7379;51.506;11.876;2023-08-01T14:15:18;5.85;;;4.20;;
14584;SDS011;7379;51.506;11.876;2023-08-01T14:17:45;5.07;;;4.28;;
14584;SDS011;7379;51.506;11.876;2023-08-01T14:20:11;4.57;;;4.18;;
14584;SDS011;7379;51.506;11.876;2023-08-01T14:22:38;5.75;;;4.25;;
14584;SDS011;7379;51.506;11.876;2023-08-01T14:25:09;10.75;;;4.60;;
14584;SDS011;7379;51.506;11.876;2023-08-01T14:27:35;5.88;;;4.68;;
14584;SDS011;7379;51.506;11.876;2023-08-01T14:30:02;5.35;;;4.32;;
14584;SDS011;7379;51.506;11.876;2023-08-01T14:32:30;4.63;;;4.22;;
14584;SDS011;7379;51.506;11.876;2023-08-01T14:34:57;4.82;;;4.28;;
14584;SDS011;7379;51.506;11.876;2023-08-01T14:37:24;4.40;;;4.00;;
14584;SDS011;7379;51.506;11.876;2023-08-01T14:39:51;4.75;;;3.90;;
14584;SDS011;7379;51.506;11.876;2023-08-01T14:42:19;4.82;;;4.00;;
14584;SDS011;7379;51.506;11.876;2023-08-01T14:44:50;4.63;;;3.92;;
14584;SDS011;7379;51.506;11.876;2023-08-01T14:47:17;4.22;;;3.83;;
14584;SDS011;7379;51.506;11.876;2023-08-01T14:49:44;4.72;;;3.80;;